In Rescue
 
Open Full Screen Window  High Contrast Mode
Wind Gusting 00 knots
14
May 25, 2022 8:05 PM CDT
Weather Information
Wind Direction
  020 °
Wind Speed
  14 kt (16 mph)
Wind Gust
  00 kt (0 mph)
Altimeter
29.84 in
Visibility
10 SM
Temperature
10° C
50° F
Dewpoint
08° C
46° F
Humidity
88%
1hr Rain Fall
00.00 in.
24hr Rain Fall
00.19 in.
Sky Condition
Overcast @ 1,600 ft
Broken @ 800 ft
IFR

METAR KMJQ 260105Z AUTO 02014KT 10SM BKN008 OVC016 10/08 A2984 RMK AO2

FAA Disclaimer: The data displayed is for advisory purposes only and is not to be used for flight planning or operations.